Time;durP1;ratioP1;P1;durP2;ratioP2;P2;SDS_P1;SDS_P2;PMS_P1;PMS_P2;Temp;Humidity;BMP_temperature;BMP_pressure;BME280_temperature;BME280_humidity;BME280_pressure;Samples;Min_cycle;Max_cycle;Signal;HPM_P1;HPM_P2
2023/11/03 03:10:38;;;;;;;13.90;6.50;;;;;;;5.14;100.00;100504.59;106321;1253;60376;-88
2023/11/03 03:13:12;;;;;;;16.20;8.20;;;;;;;5.14;100.00;100506.81;106141;1259;60384;-88
2023/11/03 03:15:40;;;;;;;22.40;9.00;;;;;;;5.10;100.00;100507.83;106355;1253;72650;-87
2023/11/03 03:18:08;;;;;;;22.50;10.20;;;;;;;5.08;100.00;100510.92;106381;1253;68754;-84
2023/11/03 03:20:36;;;;;;;18.10;9.20;;;;;;;5.10;100.00;100513.61;106651;1253;70091;-87
2023/11/03 03:23:04;;;;;;;22.70;9.70;;;;;;;5.11;100.00;100512.95;106096;1253;60537;-87
2023/11/03 03:25:38;;;;;;;18.50;9.80;;;;;;;5.06;100.00;100520.58;106006;1254;62402;-86
2023/11/03 03:28:06;;;;;;;24.90;9.40;;;;;;;5.03;100.00;100517.80;106839;1254;72582;-84
2023/11/03 03:30:34;;;;;;;21.10;9.50;;;;;;;5.01;100.00;100514.14;106328;1253;67147;-87
2023/11/03 03:33:01;;;;;;;15.60;8.10;;;;;;;5.00;100.00;100517.42;106213;1255;71445;-88
2023/11/03 03:35:36;;;;;;;21.80;9.80;;;;;;;4.99;100.00;100514.70;106202;1253;60480;-84
2023/11/03 03:38:09;;;;;;;19.90;9.20;;;;;;;4.99;100.00;100515.45;106619;1254;60448;-84
2023/11/03 03:40:37;;;;;;;22.20;9.40;;;;;;;5.04;100.00;100511.16;106235;1253;72584;-87
2023/11/03 03:43:11;;;;;;;21.30;9.00;;;;;;;5.07;100.00;100515.98;106250;1253;68331;-87
2023/11/03 03:45:39;;;;;;;17.90;8.20;;;;;;;4.98;100.00;100516.04;105999;1258;70466;-88
2023/11/03 03:48:13;;;;;;;21.80;9.50;;;;;;;4.96;100.00;100515.50;106652;1253;60314;-84
2023/11/03 03:50:41;;;;;;;21.40;8.60;;;;;;;4.99;100.00;100511.61;106189;1253;60512;-88
2023/11/03 03:53:14;;;;;;;21.70;10.60;;;;;;;5.06;100.00;100510.38;106161;1255;74315;-87
2023/11/03 03:55:42;;;;;;;19.50;9.40;;;;;;;5.15;100.00;100507.33;106194;1253;67577;-87
2023/11/03 03:58:16;;;;;;;18.10;8.30;;;;;;;5.22;100.00;100503.97;107216;1254;70967;-88
2023/11/03 04:00:43;;;;;;;18.40;8.20;;;;;;;5.17;100.00;100497.12;106125;1257;60517;-84
2023/11/03 04:03:18;;;;;;;18.00;8.00;;;;;;;5.20;100.00;100496.89;106051;1254;60531;-84
2023/11/03 04:05:52;;;;;;;15.40;8.20;;;;;;;5.24;100.00;100490.09;106182;1254;73885;-84
2023/11/03 04:08:26;;;;;;;13.20;7.10;;;;;;;5.19;100.00;100488.70;106453;1253;67748;-83
2023/11/03 04:10:54;;;;;;;11.60;6.10;;;;;;;5.12;100.00;100490.14;106433;1254;72680;-87
2023/11/03 04:13:27;;;;;;;9.10;6.20;;;;;;;5.17;100.00;100492.84;106332;1253;60458;-88
2023/11/03 04:16:02;;;;;;;9.70;5.80;;;;;;;5.14;100.00;100486.48;106293;1253;60486;-84
2023/11/03 04:18:29;;;;;;;10.10;5.40;;;;;;;5.15;100.00;100478.11;106121;1260;73875;-87
2023/11/03 04:21:01;;;;;;;13.40;6.50;;;;;;;5.18;100.00;100471.77;107116;1253;67114;-84
2023/11/03 04:23:34;;;;;;;13.00;6.70;;;;;;;5.20;100.00;100469.48;106031;1253;72709;-87
2023/11/03 04:26:08;;;;;;;14.80;6.10;;;;;;;5.21;100.00;100467.98;106245;1253;60502;-84
2023/11/03 04:28:36;;;;;;;18.20;6.80;;;;;;;5.27;100.00;100465.23;106362;1256;60431;-87
2023/11/03 04:31:10;;;;;;;16.30;7.80;;;;;;;5.30;100.00;100463.87;106931;1253;72552;-87
2023/11/03 04:33:37;;;;;;;13.00;6.40;;;;;;;5.34;100.00;100464.91;106246;1253;68812;-84
2023/11/03 04:36:12;;;;;;;20.10;9.20;;;;;;;5.29;100.00;100464.42;106195;1256;73202;-84
2023/11/03 04:38:40;;;;;;;23.70;10.10;;;;;;;5.24;100.00;100463.37;106745;1253;60874;-87
2023/11/03 04:41:13;;;;;;;19.70;8.70;;;;;;;5.16;100.00;100467.73;106382;1253;59671;-84
2023/11/03 04:43:43;;;;;;;21.30;9.80;;;;;;;5.16;100.00;100460.96;106331;1254;72617;-84
2023/11/03 04:46:17;;;;;;;22.10;9.60;;;;;;;5.08;100.00;100461.67;106175;1258;67428;-84
2023/11/03 04:48:45;;;;;;;16.30;7.50;;;;;;;5.12;100.00;100463.27;106331;1256;72666;-87
2023/11/03 04:51:19;;;;;;;14.30;6.60;;;;;;;5.08;100.00;100466.12;106896;1255;60547;-84
2023/11/03 04:53:54;;;;;;;13.50;8.60;;;;;;;5.07;100.00;100463.67;106095;1252;60442;-84
2023/11/03 04:56:22;;;;;;;13.80;7.40;;;;;;;5.04;100.00;100458.19;106270;1253;73794;-86
2023/11/03 04:58:56;;;;;;;14.50;7.10;;;;;;;5.14;100.00;100458.01;106430;1256;68570;-87
2023/11/03 05:01:31;;;;;;;11.20;5.90;;;;;;;5.25;100.00;100457.64;106943;1254;71097;-84
2023/11/03 05:04:04;;;;;;;11.00;6.10;;;;;;;5.26;100.00;100458.91;106372;1253;60520;-87
2023/11/03 05:06:33;;;;;;;10.80;6.10;;;;;;;5.28;100.00;100458.79;106265;1255;59157;-87
2023/11/03 05:09:06;;;;;;;11.10;6.40;;;;;;;5.24;100.00;100458.33;107130;1258;73791;-84
2023/11/03 05:11:34;;;;;;;9.40;6.80;;;;;;;5.28;100.00;100465.40;106267;1253;68743;-84
2023/11/03 05:14:08;;;;;;;12.00;5.80;;;;;;;5.19;100.00;100470.54;106066;1254;71470;-85
2023/11/03 05:16:36;;;;;;;10.30;6.10;;;;;;;5.18;100.00;100473.83;105990;1253;204470;-84
2023/11/03 05:19:10;;;;;;;9.90;6.10;;;;;;;4.98;100.00;100477.05;106521;1253;60468;-86
2023/11/03 05:21:38;;;;;;;12.20;6.30;;;;;;;4.90;100.00;100473.79;106189;1253;73825;-86
2023/11/03 05:24:11;;;;;;;13.50;7.60;;;;;;;4.92;100.00;100471.17;106234;1253;68355;-88
2023/11/03 05:26:46;;;;;;;12.00;7.20;;;;;;;4.95;100.00;100468.14;106103;1254;73164;-87
2023/11/03 05:29:23;;;;;;;13.00;7.30;;;;;;;5.01;100.00;100468.27;106066;1260;60547;-85
2023/11/03 05:31:56;;;;;;;15.10;6.80;;;;;;;5.18;100.00;100464.52;106682;1259;60359;-89
2023/11/03 05:34:30;;;;;;;12.90;6.30;;;;;;;5.27;100.00;100467.10;106364;1253;73910;-88
2023/11/03 05:36:58;;;;;;;10.50;6.10;;;;;;;5.42;100.00;100471.17;106244;1255;68369;-85
2023/11/03 05:39:33;;;;;;;13.30;7.90;;;;;;;5.50;100.00;100472.77;106375;1256;73149;-88
2023/11/03 05:42:02;;;;;;;14.20;8.10;;;;;;;5.66;100.00;100480.02;106120;1253;60448;-85
2023/11/03 05:44:36;;;;;;;11.10;7.30;;;;;;;5.82;100.00;100481.05;106668;1258;60345;-86
2023/11/03 05:47:09;;;;;;;18.30;8.30;;;;;;;5.90;100.00;100480.09;106180;1253;71441;-83
2023/11/03 05:49:43;;;;;;;13.90;7.30;;;;;;;6.00;100.00;100474.70;106338;1253;68336;-86
2023/11/03 05:52:11;;;;;;;29.00;14.10;;;;;;;6.15;100.00;100476.30;106399;1254;72782;-84
2023/11/03 05:54:45;;;;;;;48.00;20.00;;;;;;;6.28;100.00;100478.92;106716;1258;59233;-84
2023/11/03 05:57:19;;;;;;;28.00;12.60;;;;;;;6.40;100.00;100477.90;106268;1256;60413;-84
2023/11/03 05:59:47;;;;;;;19.10;9.60;;;;;;;6.54;100.00;100476.56;106163;1253;73826;-84
2023/11/03 06:02:21;;;;;;;18.30;10.20;;;;;;;6.64;100.00;100474.75;106400;1255;67933;-86
2023/11/03 06:04:55;;;;;;;15.80;9.00;;;;;;;6.74;100.00;100471.02;107033;1253;72654;-86
2023/11/03 06:07:29;;;;;;;24.30;10.10;;;;;;;6.82;100.00;100471.54;106189;1253;60541;-84
2023/11/03 06:09:57;;;;;;;17.50;10.00;;;;;;;6.85;100.00;100473.42;106193;1254;60065;-85
2023/11/03 06:12:31;;;;;;;19.20;10.30;;;;;;;6.97;100.00;100475.23;106229;1253;73876;-84
2023/11/03 06:15:05;;;;;;;15.70;9.00;;;;;;;7.09;100.00;100481.18;107700;1256;67690;-87
2023/11/03 06:17:40;;;;;;;16.30;9.40;;;;;;;7.32;100.00;100475.48;106130;1254;72660;-85
2023/11/03 06:20:09;;;;;;;14.50;10.00;;;;;;;7.50;100.00;100472.95;106254;1254;63897;-84
2023/11/03 06:22:41;;;;;;;15.50;9.90;;;;;;;7.90;100.00;100474.63;106194;1253;60520;-84
2023/11/03 06:25:13;;;;;;;20.30;11.80;;;;;;;8.17;100.00;100465.13;106837;1254;72601;-87
2023/11/03 06:27:46;;;;;;;30.30;14.20;;;;;;;8.44;100.00;100462.30;106500;1253;68670;-88
2023/11/03 06:30:18;;;;;;;26.90;14.20;;;;;;;8.81;100.00;100454.94;106202;1253;72828;-88
2023/11/03 06:32:50;;;;;;;24.00;12.60;;;;;;;9.15;100.00;100447.61;106263;1254;60388;-83
2023/11/03 06:35:24;;;;;;;18.00;9.90;;;;;;;9.64;100.00;100441.16;107124;1253;60819;-87
2023/11/03 06:37:57;;;;;;;15.50;9.10;;;;;;;9.94;100.00;100434.03;106165;1253;72422;-88
2023/11/03 06:40:29;;;;;;;17.60;10.00;;;;;;;10.26;100.00;100430.98;106198;1253;68399;-83
2023/11/03 06:43:01;;;;;;;19.10;10.70;;;;;;;10.38;100.00;100428.23;106140;1258;72374;-88
2023/11/03 06:45:33;;;;;;;16.40;9.20;;;;;;;10.72;100.00;100427.98;106344;1258;60497;-83
2023/11/03 06:48:06;;;;;;;15.50;9.30;;;;;;;10.90;100.00;100427.72;107014;1254;60396;-84
2023/11/03 06:50:39;;;;;;;18.70;10.50;;;;;;;11.22;100.00;100423.37;106208;1253;73810;-88
2023/11/03 06:53:11;;;;;;;17.90;9.30;;;;;;;11.57;100.00;100419.21;106060;1254;67750;-88
2023/11/03 06:55:44;;;;;;;17.60;9.70;;;;;;;11.78;100.00;100413.95;106184;1255;70720;-84
2023/11/03 06:58:16;;;;;;;17.60;8.00;;;;;;;12.07;100.00;100408.25;106206;1256;60530;-88
2023/11/03 07:00:48;;;;;;;;;;;;;;;12.30;100.00;100405.64;106694;1253;60313;-88
2023/11/03 07:03:21;;;;;;;16.20;8.70;;;;;;;12.51;100.00;100398.70;106369;1257;74088;-84
2023/11/03 07:05:53;;;;;;;14.30;6.70;;;;;;;12.76;100.00;100397.39;106175;1255;69003;-87
